Time;durP1;ratioP1;P1;durP2;ratioP2;P2;SDS_P1;SDS_P2;PMS_P1;PMS_P2;Temp;Humidity;BMP_temperature;BMP_pressure;BME280_temperature;BME280_humidity;BME280_pressure;Samples;Min_cycle;Max_cycle;Signal;HPM_P1;HPM_P2
2023/05/23 00:00:57;;;;;;;7.20;5.80;;;;;;;;;;5017126;28;20177;-45
2023/05/23 00:03:23;;;;;;;12.98;6.03;;;;;;;;;;5013818;28;20184;-45
2023/05/23 00:05:50;;;;;;;7.10;6.00;;;;;;;;;;5011179;28;20226;-45
2023/05/23 00:08:16;;;;;;;7.57;6.20;;;;;;;;;;5011375;28;20180;-45
2023/05/23 00:10:42;;;;;;;6.85;5.80;;;;;;;;;;5008143;28;20185;-45
2023/05/23 00:13:08;;;;;;;7.32;6.25;;;;;;;;;;5028362;28;20199;-45
2023/05/23 00:15:36;;;;;;;8.38;6.05;;;;;;;;;;5010828;28;20603;-45
2023/05/23 00:18:02;;;;;;;7.72;5.68;;;;;;;;;;5024734;28;20192;-45
2023/05/23 00:20:29;;;;;;;7.20;5.65;;;;;;;;;;5008457;28;20616;-45
2023/05/23 00:22:57;;;;;;;7.80;6.25;;;;;;;;;;5009765;28;20203;-45
2023/05/23 00:25:23;;;;;;;6.70;5.15;;;;;;;;;;5008702;28;20205;-45
2023/05/23 00:27:49;;;;;;;10.98;5.45;;;;;;;;;;5011828;28;20489;-45
2023/05/23 00:30:15;;;;;;;7.65;5.65;;;;;;;;;;5021015;28;20180;-45
2023/05/23 00:32:41;;;;;;;9.15;6.00;;;;;;;;;;5019576;28;20176;-45
2023/05/23 00:35:07;;;;;;;6.70;5.50;;;;;;;;;;5019806;28;20246;-45
2023/05/23 00:37:33;;;;;;;7.70;5.85;;;;;;;;;;5018040;28;20185;-45
2023/05/23 00:39:59;;;;;;;6.90;5.25;;;;;;;;;;5020925;28;20195;-45
2023/05/23 00:42:25;;;;;;;7.53;5.43;;;;;;;;;;5015722;28;20223;-45
2023/05/23 00:44:51;;;;;;;6.35;5.50;;;;;;;;;;5017336;28;20216;-45
2023/05/23 00:47:17;;;;;;;6.07;5.03;;;;;;;;;;5017135;28;20239;-45
2023/05/23 00:49:43;;;;;;;6.88;5.78;;;;;;;;;;5019004;28;20207;-46
2023/05/23 00:52:10;;;;;;;5.68;4.93;;;;;;;;;;5019077;28;20211;-45
2023/05/23 00:54:36;;;;;;;6.65;5.25;;;;;;;;;;5019140;28;21010;-45
2023/05/23 00:57:02;;;;;;;7.30;5.47;;;;;;;;;;5019171;28;20200;-45
2023/05/23 00:59:28;;;;;;;8.70;5.45;;;;;;;;;;5013442;28;20189;-45
2023/05/23 01:01:56;;;;;;;7.72;5.22;;;;;;;;;;5022162;28;20204;-45
2023/05/23 01:04:25;;;;;;;7.25;4.80;;;;;;;;;;5020951;28;20498;-45
2023/05/23 01:06:52;;;;;;;6.28;5.55;;;;;;;;;;5016608;28;20212;-45
2023/05/23 01:09:19;;;;;;;6.45;5.45;;;;;;;;;;5009315;28;20191;-45
2023/05/23 01:11:51;;;;;;;5.70;4.85;;;;;;;;;;5019922;28;20191;-45
2023/05/23 01:14:20;;;;;;;5.75;4.90;;;;;;;;;;5017643;28;20470;-45
2023/05/23 01:16:48;;;;;;;8.13;5.15;;;;;;;;;;5019095;28;20219;-45
2023/05/23 01:19:34;;;;;;;6.55;5.72;;;;;;;;;;5019961;28;20188;-45
2023/05/23 01:22:03;;;;;;;7.03;5.30;;;;;;;;;;5014023;28;20187;-45
2023/05/23 01:24:49;;;;;;;6.72;5.22;;;;;;;;;;5016634;28;20463;-45
2023/05/23 01:27:23;;;;;;;7.28;4.93;;;;;;;;;;5018547;28;20219;-45
2023/05/23 01:29:51;;;;;;;5.45;4.95;;;;;;;;;;5019246;28;20255;-45
2023/05/23 01:32:17;;;;;;;5.85;4.70;;;;;;;;;;5014153;28;20189;-45
2023/05/23 01:34:43;;;;;;;5.25;4.53;;;;;;;;;;5017351;28;20212;-45
2023/05/23 01:37:10;;;;;;;5.80;5.05;;;;;;;;;;5014228;28;20569;-45
2023/05/23 01:39:36;;;;;;;5.25;4.40;;;;;;;;;;5012509;28;20213;-45
2023/05/23 01:42:02;;;;;;;7.20;5.07;;;;;;;;;;5017765;28;20193;-45
2023/05/23 01:44:28;;;;;;;6.90;4.80;;;;;;;;;;5006889;28;20203;-45
2023/05/23 01:46:54;;;;;;;5.55;4.80;;;;;;;;;;5013975;28;20208;-45
2023/05/23 01:49:21;;;;;;;6.50;4.82;;;;;;;;;;5016510;28;20557;-45
2023/05/23 01:51:48;;;;;;;5.57;4.72;;;;;;;;;;5017043;28;20188;-45
2023/05/23 01:54:15;;;;;;;5.45;4.93;;;;;;;;;;5011697;28;20216;-45
2023/05/23 01:56:42;;;;;;;6.15;4.85;;;;;;;;;;5012589;28;20440;-45
2023/05/23 01:59:08;;;;;;;6.65;4.68;;;;;;;;;;5008384;28;20314;-45
2023/05/23 02:01:34;;;;;;;5.93;4.43;;;;;;;;;;5014974;28;20184;-45
2023/05/23 02:04:00;;;;;;;7.75;4.97;;;;;;;;;;5016893;28;20913;-45
2023/05/23 02:06:26;;;;;;;5.18;4.68;;;;;;;;;;5017063;28;20237;-45
2023/05/23 02:08:52;;;;;;;6.20;4.80;;;;;;;;;;5012644;28;20234;-45
2023/05/23 02:11:18;;;;;;;6.72;4.55;;;;;;;;;;5016267;28;20188;-45
2023/05/23 02:13:44;;;;;;;4.88;4.00;;;;;;;;;;5012600;28;20674;-45
2023/05/23 02:16:10;;;;;;;5.93;4.70;;;;;;;;;;5013564;28;20204;-45
2023/05/23 02:18:37;;;;;;;5.28;4.78;;;;;;;;;;5009724;28;20181;-45
2023/05/23 02:21:03;;;;;;;6.20;5.00;;;;;;;;;;5016895;28;20283;-45
2023/05/23 02:23:28;;;;;;;5.10;4.43;;;;;;;;;;5010835;28;20192;-45
2023/05/23 02:25:54;;;;;;;5.82;4.30;;;;;;;;;;5011380;28;20214;-45
2023/05/23 02:28:20;;;;;;;4.50;4.10;;;;;;;;;;5010598;28;20188;-45
2023/05/23 02:30:46;;;;;;;6.35;4.72;;;;;;;;;;5009827;28;20219;-45
2023/05/23 02:33:12;;;;;;;6.15;4.85;;;;;;;;;;5012399;28;20642;-45
2023/05/23 02:35:39;;;;;;;5.95;4.60;;;;;;;;;;5013458;28;20189;-45
2023/05/23 02:38:05;;;;;;;4.80;4.20;;;;;;;;;;5016131;28;20202;-45
2023/05/23 02:40:31;;;;;;;6.18;4.13;;;;;;;;;;5006963;28;20564;-45
2023/05/23 02:42:57;;;;;;;5.95;4.55;;;;;;;;;;5011722;28;20256;-45
2023/05/23 02:45:23;;;;;;;5.18;4.53;;;;;;;;;;5006197;28;20227;-45
2023/05/23 02:47:49;;;;;;;5.82;4.30;;;;;;;;;;5012989;28;20180;-45
2023/05/23 02:50:15;;;;;;;8.07;4.30;;;;;;;;;;5013401;28;20187;-45
2023/05/23 02:52:41;;;;;;;5.88;4.72;;;;;;;;;;5011747;28;20180;-45
2023/05/23 02:55:07;;;;;;;6.60;4.68;;;;;;;;;;5014753;28;20203;-45
2023/05/23 02:57:33;;;;;;;7.22;4.70;;;;;;;;;;5015489;28;20192;-45
2023/05/23 02:59:59;;;;;;;4.57;4.15;;;;;;;;;;5013337;28;20192;-45
2023/05/23 03:02:25;;;;;;;4.90;4.25;;;;;;;;;;5011757;28;20434;-45
2023/05/23 03:04:51;;;;;;;5.18;4.60;;;;;;;;;;5007399;28;20196;-45
2023/05/23 03:07:17;;;;;;;4.85;4.10;;;;;;;;;;5012537;28;20189;-45
2023/05/23 03:09:43;;;;;;;4.43;4.03;;;;;;;;;;5007236;28;20189;-45
2023/05/23 03:12:09;;;;;;;4.82;4.10;;;;;;;;;;5011127;28;20303;-45
2023/05/23 03:14:35;;;;;;;4.82;3.95;;;;;;;;;;5010043;28;20230;-45
2023/05/23 03:17:02;;;;;;;5.53;4.22;;;;;;;;;;5012978;28;20192;-45
2023/05/23 03:19:28;;;;;;;6.43;4.45;;;;;;;;;;5007428;28;20251;-45
2023/05/23 03:21:54;;;;;;;3.75;3.45;;;;;;;;;;5011210;28;20579;-45
2023/05/23 03:24:20;;;;;;;5.75;4.50;;;;;;;;;;5012407;28;20212;-48
2023/05/23 03:26:46;;;;;;;6.38;4.28;;;;;;;;;;5016262;28;20216;-49
2023/05/23 03:29:12;;;;;;;5.32;4.47;;;;;;;;;;5011050;28;20185;-49
2023/05/23 03:31:38;;;;;;;10.52;5.00;;;;;;;;;;5003922;28;20185;-49
2023/05/23 03:34:04;;;;;;;15.02;5.32;;;;;;;;;;5010612;28;20231;-49
2023/05/23 03:36:32;;;;;;;10.43;5.13;;;;;;;;;;5012235;28;20576;-49
2023/05/23 03:38:58;;;;;;;9.80;4.80;;;;;;;;;;5010736;28;20216;-49
2023/05/23 03:41:25;;;;;;;8.57;4.60;;;;;;;;;;5010364;28;20222;-49
2023/05/23 03:43:51;;;;;;;41.78;10.93;;;;;;;;;;5013198;28;20207;-49
2023/05/23 03:46:17;;;;;;;45.97;13.70;;;;;;;;;;5009019;28;20513;-49
2023/05/23 03:48:43;;;;;;;44.90;14.18;;;;;;;;;;5013502;28;20177;-49
2023/05/23 03:51:09;;;;;;;38.60;12.50;;;;;;;;;;5011432;28;20464;-49
2023/05/23 03:53:35;;;;;;;48.72;12.52;;;;;;;;;;5012277;28;20359;-49
2023/05/23 03:56:00;;;;;;;35.10;10.73;;;;;;;;;;5014317;28;20223;-49
2023/05/23 03:58:26;;;;;;;31.85;10.85;;;;;;;;;;5009085;28;20188;-49
2023/05/23 04:00:53;;;;;;;26.75;9.88;;;;;;;;;;5014073;28;20199;-49
2023/05/23 04:03:19;;;;;;;29.55;10.18;;;;;;;;;;5014140;28;20615;-49
2023/05/23 04:05:45;;;;;;;23.38;9.30;;;;;;;;;;5013767;28;20220;-49
2023/05/23 04:08:11;;;;;;;23.60;9.10;;;;;;;;;;5011427;28;20511;-49
2023/05/23 04:10:37;;;;;;;30.13;9.05;;;;;;;;;;5010722;28;20635;-49
2023/05/23 04:13:03;;;;;;;26.80;9.52;;;;;;;;;;5027475;28;20295;-49
2023/05/23 04:15:29;;;;;;;29.80;9.68;;;;;;;;;;5012096;28;20185;-49
2023/05/23 04:17:55;;;;;;;25.02;9.65;;;;;;;;;;5010325;28;20619;-49
2023/05/23 04:20:21;;;;;;;25.25;9.88;;;;;;;;;;5011719;28;20622;-49
2023/05/23 04:22:47;;;;;;;25.65;9.95;;;;;;;;;;5007139;28;20473;-49
2023/05/23 04:25:13;;;;;;;24.80;9.57;;;;;;;;;;5010685;28;20211;-49
2023/05/23 04:27:39;;;;;;;22.48;9.93;;;;;;;;;;5011885;28;20225;-49
2023/05/23 04:30:08;;;;;;;28.10;9.68;;;;;;;;;;5011733;28;20192;-49
2023/05/23 04:32:34;;;;;;;27.50;9.52;;;;;;;;;;5016935;28;20473;-49
2023/05/23 04:35:01;;;;;;;24.83;8.65;;;;;;;;;;5014880;28;20180;-49
2023/05/23 04:37:26;;;;;;;22.10;9.95;;;;;;;;;;5014234;28;20583;-49
2023/05/23 04:39:53;;;;;;;22.05;9.15;;;;;;;;;;5012927;28;20192;-49
2023/05/23 04:42:23;;;;;;;21.17;9.20;;;;;;;;;;5016822;28;20184;-49
2023/05/23 04:44:49;;;;;;;20.63;8.77;;;;;;;;;;5009351;28;20610;-49
2023/05/23 04:47:15;;;;;;;22.65;8.80;;;;;;;;;;5012717;28;20290;-49
2023/05/23 04:49:41;;;;;;;20.00;8.55;;;;;;;;;;5004661;28;20255;-49
2023/05/23 04:52:07;;;;;;;19.45;8.88;;;;;;;;;;5011103;28;20222;-49
2023/05/23 04:54:33;;;;;;;22.00;8.75;;;;;;;;;;5012365;28;20196;-49
2023/05/23 04:56:59;;;;;;;20.20;8.65;;;;;;;;;;5004684;28;20192;-49
2023/05/23 04:59:25;;;;;;;18.52;8.27;;;;;;;;;;5012575;28;20303;-49
2023/05/23 05:01:51;;;;;;;20.90;9.43;;;;;;;;;;5008164;28;20440;-49
2023/05/23 05:04:17;;;;;;;17.48;8.70;;;;;;;;;;5008219;28;20198;-49
2023/05/23 05:06:43;;;;;;;16.48;8.45;;;;;;;;;;5011801;28;20231;-49
2023/05/23 05:09:09;;;;;;;14.93;7.22;;;;;;;;;;5011229;28;20185;-49
2023/05/23 05:11:35;;;;;;;16.85;8.05;;;;;;;;;;5012217;28;20278;-49
2023/05/23 05:14:00;;;;;;;14.57;7.10;;;;;;;;;;5009728;28;20199;-49
2023/05/23 05:16:26;;;;;;;17.52;7.95;;;;;;;;;;5016177;28;20204;-49
2023/05/23 05:18:52;;;;;;;16.42;7.55;;;;;;;;;;5013660;28;20195;-49
2023/05/23 05:21:18;;;;;;;17.77;8.23;;;;;;;;;;5033813;28;20188;-49
2023/05/23 05:23:45;;;;;;;16.40;8.20;;;;;;;;;;5023714;28;20187;-49
2023/05/23 05:26:10;;;;;;;18.65;7.60;;;;;;;;;;5015421;28;20204;-49
2023/05/23 05:28:37;;;;;;;17.33;9.02;;;;;;;;;;5013122;28;20244;-49
2023/05/23 05:31:03;;;;;;;13.35;7.22;;;;;;;;;;5017078;28;20180;-49
2023/05/23 05:33:34;;;;;;;15.48;7.88;;;;;;;;;;5017622;28;20448;-49
2023/05/23 05:36:05;;;;;;;15.75;7.55;;;;;;;;;;5016325;28;20184;-49
2023/05/23 05:38:31;;;;;;;20.80;7.72;;;;;;;;;;5013801;28;20470;-49
2023/05/23 05:40:57;;;;;;;15.45;7.30;;;;;;;;;;5015924;28;20180;-49
2023/05/23 05:43:23;;;;;;;12.45;7.50;;;;;;;;;;5013579;28;20478;-49
2023/05/23 05:45:49;;;;;;;12.18;7.25;;;;;;;;;;5012834;28;20216;-49
2023/05/23 05:48:15;;;;;;;17.00;7.88;;;;;;;;;;5015885;28;20555;-49
2023/05/23 05:50:44;;;;;;;14.00;6.38;;;;;;;;;;5011929;28;20180;-49
2023/05/23 05:53:10;;;;;;;12.60;6.88;;;;;;;;;;5008505;28;20608;-49
2023/05/23 05:55:36;;;;;;;12.07;6.55;;;;;;;;;;5012553;28;20264;-49
2023/05/23 05:58:02;;;;;;;14.38;7.45;;;;;;;;;;5016760;28;20216;-49
2023/05/23 06:00:29;;;;;;;14.18;7.20;;;;;;;;;;5013838;28;20219;-49
2023/05/23 06:02:56;;;;;;;14.02;7.53;;;;;;;;;;5012830;28;20568;-49
2023/05/23 06:05:22;;;;;;;13.85;7.55;;;;;;;;;;5010605;28;20242;-49
2023/05/23 06:07:49;;;;;;;13.18;6.88;;;;;;;;;;5016150;28;20184;-49
2023/05/23 06:10:15;;;;;;;14.07;6.65;;;;;;;;;;5013732;28;20429;-49
2023/05/23 06:12:41;;;;;;;10.73;6.95;;;;;;;;;;5018427;28;20195;-49
2023/05/23 06:15:13;;;;;;;13.40;6.28;;;;;;;;;;5006023;28;20242;-49
2023/05/23 06:17:39;;;;;;;9.43;5.90;;;;;;;;;;5014458;28;20177;-49
2023/05/23 06:20:05;;;;;;;7.80;5.82;;;;;;;;;;5013031;28;20193;-49
2023/05/23 06:22:31;;;;;;;13.90;6.25;;;;;;;;;;5018655;28;20627;-49
2023/05/23 06:24:57;;;;;;;10.15;5.97;;;;;;;;;;5013555;28;20269;-49
2023/05/23 06:27:23;;;;;;;11.40;6.60;;;;;;;;;;5015428;28;20548;-49
2023/05/23 06:29:49;;;;;;;10.48;6.68;;;;;;;;;;5016515;28;20211;-49
2023/05/23 06:32:15;;;;;;;10.07;6.68;;;;;;;;;;5018283;28;20304;-49
2023/05/23 06:34:41;;;;;;;10.32;6.25;;;;;;;;;;5005310;28;20187;-49
2023/05/23 06:37:07;;;;;;;9.98;6.05;;;;;;;;;;5016590;28;20272;-49
2023/05/23 06:39:33;;;;;;;9.18;6.03;;;;;;;;;;5009821;28;20188;-48
2023/05/23 06:41:59;;;;;;;8.80;5.70;;;;;;;;;;5013618;28;20267;-48
2023/05/23 06:44:25;;;;;;;9.65;6.32;;;;;;;;;;5003548;28;20184;-48
2023/05/23 06:46:56;;;;;;;10.27;6.38;;;;;;;;;;5011502;28;20283;-49
2023/05/23 06:49:22;;;;;;;8.40;5.93;;;;;;;;;;5015684;28;20177;-49
2023/05/23 06:51:48;;;;;;;10.48;5.57;;;;;;;;;;5015319;28;20177;-49
2023/05/23 06:54:14;;;;;;;9.90;5.85;;;;;;;;;;5014507;28;20187;-49
2023/05/23 06:56:40;;;;;;;7.43;5.65;;;;;;;;;;5013003;28;20188;-48
2023/05/23 06:59:06;;;;;;;8.18;6.05;;;;;;;;;;5030046;28;20517;-48
2023/05/23 07:01:32;;;;;;;7.60;4.93;;;;;;;;;;5016340;28;20463;-48
2023/05/23 07:03:58;;;;;;;11.15;6.18;;;;;;;;;;5015606;28;20176;-48
2023/05/23 07:06:24;;;;;;;7.20;5.38;;;;;;;;;;5011434;28;20604;-49
2023/05/23 07:08:50;;;;;;;9.27;5.82;;;;;;;;;;5015299;28;20173;-49
2023/05/23 07:11:15;;;;;;;7.40;5.30;;;;;;;;;;5013681;28;20185;-49
2023/05/23 07:13:41;;;;;;;8.88;5.22;;;;;;;;;;5017309;28;20183;-49
2023/05/23 07:16:07;;;;;;;7.78;5.40;;;;;;;;;;5011807;28;20623;-49
2023/05/23 07:18:33;;;;;;;7.40;5.65;;;;;;;;;;5013886;28;20209;-49
2023/05/23 07:20:59;;;;;;;7.45;5.40;;;;;;;;;;5013323;28;20287;-49
2023/05/23 07:23:25;;;;;;;8.05;5.75;;;;;;;;;;5014318;28;20231;-49
2023/05/23 07:25:51;;;;;;;9.85;6.13;;;;;;;;;;5010341;28;20209;-49
2023/05/23 07:28:17;;;;;;;9.40;6.07;;;;;;;;;;5012053;28;20227;-49
2023/05/23 07:30:43;;;;;;;8.25;6.13;;;;;;;;;;5013726;28;20184;-49
2023/05/23 07:33:09;;;;;;;8.93;6.10;;;;;;;;;;5029426;28;20177;-49
2023/05/23 07:35:35;;;;;;;8.40;5.38;;;;;;;;;;5008868;28;20764;-49
2023/05/23 07:38:01;;;;;;;7.32;5.63;;;;;;;;;;5012480;28;20241;-49
2023/05/23 07:40:27;;;;;;;8.77;6.00;;;;;;;;;;5014501;28;20194;-49
2023/05/23 07:42:53;;;;;;;8.75;6.22;;;;;;;;;;5007053;28;20197;-49
2023/05/23 07:45:19;;;;;;;7.45;5.93;;;;;;;;;;5013950;28;20208;-49
2023/05/23 07:47:45;;;;;;;6.63;5.38;;;;;;;;;;5012224;28;20796;-49
2023/05/23 07:50:10;;;;;;;7.03;5.57;;;;;;;;;;5015070;28;20180;-49
2023/05/23 07:52:36;;;;;;;6.88;5.63;;;;;;;;;;5011206;28;20259;-49
2023/05/23 07:55:02;;;;;;;6.80;5.80;;;;;;;;;;5011899;28;20200;-49
2023/05/23 07:57:29;;;;;;;9.32;6.05;;;;;;;;;;5001205;28;20231;-49
2023/05/23 07:59:55;;;;;;;7.60;6.00;;;;;;;;;;5011695;28;20183;-49
2023/05/23 08:02:21;;;;;;;7.53;6.30;;;;;;;;;;5013008;28;20184;-49
2023/05/23 08:04:47;;;;;;;8.40;6.13;;;;;;;;;;5012475;28;20524;-49
2023/05/23 08:07:13;;;;;;;8.13;6.25;;;;;;;;;;5010465;28;20278;-49
2023/05/23 08:09:39;;;;;;;8.00;5.78;;;;;;;;;;5014160;28;20590;-49
2023/05/23 08:12:06;;;;;;;9.55;6.03;;;;;;;;;;5011185;28;20597;-49
2023/05/23 08:14:32;;;;;;;6.78;5.25;;;;;;;;;;5001619;28;20387;-49
2023/05/23 08:16:58;;;;;;;8.70;5.65;;;;;;;;;;5010820;28;20184;-49
2023/05/23 08:19:24;;;;;;;7.88;5.72;;;;;;;;;;5012211;28;20203;-49
2023/05/23 08:21:51;;;;;;;7.97;6.00;;;;;;;;;;5013760;28;20184;-49
2023/05/23 08:24:17;;;;;;;7.40;5.88;;;;;;;;;;5010720;28;20195;-49
2023/05/23 08:26:43;;;;;;;9.38;6.70;;;;;;;;;;5024529;28;20479;-49
2023/05/23 08:29:09;;;;;;;8.10;5.50;;;;;;;;;;5013497;28;20615;-49
2023/05/23 08:31:35;;;;;;;6.90;5.57;;;;;;;;;;5013434;28;20174;-49
2023/05/23 08:34:01;;;;;;;7.00;5.28;;;;;;;;;;5010349;28;20188;-49
2023/05/23 08:36:27;;;;;;;6.63;5.60;;;;;;;;;;5013630;28;20191;-49
2023/05/23 08:38:53;;;;;;;7.65;5.30;;;;;;;;;;5007223;28;20177;-49
2023/05/23 08:41:20;;;;;;;7.10;5.28;;;;;;;;;;5014839;28;20282;-49
2023/05/23 08:43:46;;;;;;;7.05;5.38;;;;;;;;;;5010516;28;20440;-49
2023/05/23 08:46:12;;;;;;;7.60;5.38;;;;;;;;;;5013013;28;20622;-49
2023/05/23 08:48:38;;;;;;;5.18;4.68;;;;;;;;;;5005870;28;20461;-49
2023/05/23 08:51:05;;;;;;;6.68;4.70;;;;;;;;;;5015377;28;20180;-49
2023/05/23 08:53:32;;;;;;;7.68;5.38;;;;;;;;;;5020083;28;20192;-49
2023/05/23 08:56:01;;;;;;;5.90;5.30;;;;;;;;;;5017111;28;20184;-49
2023/05/23 08:58:30;;;;;;;7.93;5.15;;;;;;;;;;5016448;28;20189;-49
2023/05/23 09:00:57;;;;;;;7.03;5.60;;;;;;;;;;5012248;28;20192;-49
2023/05/23 09:03:25;;;;;;;8.25;5.90;;;;;;;;;;5017054;28;20247;-49
2023/05/23 09:05:52;;;;;;;8.23;5.93;;;;;;;;;;5016437;28;20620;-49
2023/05/23 09:08:19;;;;;;;8.05;6.00;;;;;;;;;;5016951;28;20203;-48
2023/05/23 09:10:45;;;;;;;6.55;5.28;;;;;;;;;;5017175;28;20255;-48
2023/05/23 09:13:10;;;;;;;8.30;7.32;;;;;;;;;;5012912;28;20263;-48
2023/05/23 09:15:37;;;;;;;6.80;5.75;;;;;;;;;;5015629;28;20180;-48
2023/05/23 09:18:03;;;;;;;6.20;4.93;;;;;;;;;;5013678;28;20215;-48
2023/05/23 09:20:29;;;;;;;6.30;5.38;;;;;;;;;;5016621;28;20527;-48
2023/05/23 09:22:55;;;;;;;6.05;4.93;;;;;;;;;;5014316;28;20199;-49
2023/05/23 09:25:21;;;;;;;6.50;4.97;;;;;;;;;;5016605;28;20308;-49
2023/05/23 09:27:47;;;;;;;5.57;4.95;;;;;;;;;;5016972;28;20571;-49
2023/05/23 09:30:13;;;;;;;8.10;5.40;;;;;;;;;;5011550;28;20268;-49
2023/05/23 09:32:40;;;;;;;8.77;4.80;;;;;;;;;;5019044;28;20276;-49
2023/05/23 09:35:11;;;;;;;5.25;4.68;;;;;;;;;;5012350;28;20226;-49
2023/05/23 09:37:38;;;;;;;5.75;4.80;;;;;;;;;;5015411;28;20181;-49
2023/05/23 09:40:11;;;;;;;7.07;5.47;;;;;;;;;;5013474;28;20185;-49
2023/05/23 09:42:44;;;;;;;5.20;4.70;;;;;;;;;;5015119;28;20182;-49
2023/05/23 09:45:10;;;;;;;5.70;4.40;;;;;;;;;;5013243;28;20185;-49
2023/05/23 09:47:36;;;;;;;6.20;4.30;;;;;;;;;;5029274;28;20592;-49
2023/05/23 09:50:02;;;;;;;6.10;4.57;;;;;;;;;;5012040;28;20311;-49
2023/05/23 09:52:36;;;;;;;5.97;4.32;;;;;;;;;;5034096;28;20441;-49
2023/05/23 09:55:02;;;;;;;5.22;4.40;;;;;;;;;;5032478;28;20451;-49
2023/05/23 09:57:28;;;;;;;4.90;4.30;;;;;;;;;;5015454;28;20181;-48
2023/05/23 09:59:54;;;;;;;5.03;4.00;;;;;;;;;;5015928;28;20216;-48
2023/05/23 10:02:30;;;;;;;4.63;4.20;;;;;;;;;;5018035;28;20180;-48
2023/05/23 10:04:56;;;;;;;5.22;4.38;;;;;;;;;;5007597;28;20177;-48
2023/05/23 10:07:22;;;;;;;4.45;4.03;;;;;;;;;;5008729;28;20520;-48
2023/05/23 10:09:54;;;;;;;4.97;4.10;;;;;;;;;;5007266;28;20192;-48
2023/05/23 10:12:33;;;;;;;5.30;3.88;;;;;;;;;;5017151;28;20198;-48
2023/05/23 10:15:04;;;;;;;5.88;4.05;;;;;;;;;;5011375;28;20185;-48
2023/05/23 10:17:39;;;;;;;5.70;3.83;;;;;;;;;;5010697;28;20246;-48
2023/05/23 10:20:11;;;;;;;5.15;4.30;;;;;;;;;;5016060;28;20206;-48
2023/05/23 10:22:37;;;;;;;4.25;3.85;;;;;;;;;;5006493;28;20195;-48
2023/05/23 10:25:04;;;;;;;4.90;3.95;;;;;;;;;;5012785;28;20243;-48
2023/05/23 10:27:30;;;;;;;4.97;3.75;;;;;;;;;;5010333;28;20250;-48
2023/05/23 10:29:57;;;;;;;4.75;3.63;;;;;;;;;;5015969;28;20520;-48
2023/05/23 10:32:23;;;;;;;4.10;3.70;;;;;;;;;;5012874;28;20180;-48
2023/05/23 10:34:56;;;;;;;4.07;3.67;;;;;;;;;;5005880;28;20184;-49
2023/05/23 10:37:41;;;;;;;4.13;3.38;;;;;;;;;;5012048;28;20191;-49
2023/05/23 10:40:07;;;;;;;3.92;3.53;;;;;;;;;;5031549;28;20691;-49
2023/05/23 10:42:36;;;;;;;5.65;3.25;;;;;;;;;;5011721;28;20205;-49
2023/05/23 10:45:15;;;;;;;4.15;3.47;;;;;;;;;;5006942;28;20213;-49
2023/05/23 10:47:41;;;;;;;5.15;3.63;;;;;;;;;;5010009;28;20595;-49
2023/05/23 10:50:11;;;;;;;4.30;3.40;;;;;;;;;;5008990;28;20185;-49
2023/05/23 10:52:41;;;;;;;4.57;3.10;;;;;;;;;;5032011;28;20187;-49
2023/05/23 10:55:16;;;;;;;6.47;3.20;;;;;;;;;;5013818;28;20177;-49
2023/05/23 10:57:43;;;;;;;4.90;3.03;;;;;;;;;;5004865;28;20185;-49
2023/05/23 11:00:15;;;;;;;3.05;2.75;;;;;;;;;;5012735;28;20181;-49
2023/05/23 11:02:55;;;;;;;3.08;2.78;;;;;;;;;;5012816;28;20188;-49
2023/05/23 11:05:22;;;;;;;3.10;2.80;;;;;;;;;;5012291;28;20449;-49
2023/05/23 11:08:10;;;;;;;3.85;2.30;;;;;;;;;;5008975;28;20191;-49
2023/05/23 11:10:52;;;;;;;3.83;2.80;;;;;;;;;;5008330;28;20176;-49
2023/05/23 11:13:20;;;;;;;3.47;3.15;;;;;;;;;;5012889;28;20172;-49
2023/05/23 11:15:46;;;;;;;3.00;2.70;;;;;;;;;;5010301;28;20181;-49
2023/05/23 11:18:20;;;;;;;2.88;2.42;;;;;;;;;;5015062;28;20196;-48
2023/05/23 11:20:46;;;;;;;2.92;2.33;;;;;;;;;;5011966;28;20184;-48
2023/05/23 11:23:12;;;;;;;2.55;2.33;;;;;;;;;;5016146;28;20242;-49
2023/05/23 11:25:41;;;;;;;2.47;2.22;;;;;;;;;;5014249;28;20211;-49
2023/05/23 11:28:08;;;;;;;2.63;2.40;;;;;;;;;;5011510;28;20206;-49
2023/05/23 11:30:38;;;;;;;2.42;2.22;;;;;;;;;;5012518;28;20208;-49
2023/05/23 11:33:08;;;;;;;2.67;2.42;;;;;;;;;;5012594;28;20584;-49
2023/05/23 11:35:36;;;;;;;3.92;2.20;;;;;;;;;;5010562;28;20314;-49
2023/05/23 11:38:02;;;;;;;2.90;2.40;;;;;;;;;;5006328;28;20567;-49
2023/05/23 11:40:35;;;;;;;3.85;2.25;;;;;;;;;;5014791;28;20459;-49
2023/05/23 11:43:08;;;;;;;6.78;2.58;;;;;;;;;;5011424;28;20481;-48
2023/05/23 11:45:35;;;;;;;2.50;2.08;;;;;;;;;;5023685;28;20226;-48
2023/05/23 11:48:19;;;;;;;2.67;2.40;;;;;;;;;;5010012;28;20216;-48
2023/05/23 11:50:52;;;;;;;2.42;2.22;;;;;;;;;;5011423;28;20195;-48
2023/05/23 11:53:20;;;;;;;2.40;2.20;;;;;;;;;;5014277;28;20576;-48
2023/05/23 11:56:04;;;;;;;2.40;2.20;;;;;;;;;;5005985;28;20176;-48
2023/05/23 11:58:34;;;;;;;2.85;2.42;;;;;;;;;;5011469;28;20180;-48
2023/05/23 12:01:00;;;;;;;2.95;2.00;;;;;;;;;;5010739;28;20187;-49
2023/05/23 12:03:26;;;;;;;3.58;2.10;;;;;;;;;;5013611;28;20203;-49
2023/05/23 12:05:54;;;;;;;3.60;2.20;;;;;;;;;;5013703;28;20207;-49
2023/05/23 12:08:20;;;;;;;3.28;2.15;;;;;;;;;;5012251;28;20180;-49
2023/05/23 12:10:49;;;;;;;4.30;2.17;;;;;;;;;;5013918;28;20456;-49
2023/05/23 12:13:15;;;;;;;2.58;2.35;;;;;;;;;;5011727;28;20185;-49
2023/05/23 12:15:41;;;;;;;2.55;2.20;;;;;;;;;;5012175;28;20437;-49
2023/05/23 12:18:07;;;;;;;3.13;1.85;;;;;;;;;;5014755;28;20300;-48
2023/05/23 12:20:35;;;;;;;1.88;1.77;;;;;;;;;;5013180;28;20262;-49
2023/05/23 12:23:04;;;;;;;2.45;2.13;;;;;;;;;;5013243;28;20184;-49
2023/05/23 12:25:37;;;;;;;2.13;1.95;;;;;;;;;;5012466;28;20204;-49
2023/05/23 12:28:04;;;;;;;3.92;2.20;;;;;;;;;;5008243;28;20467;-49
2023/05/23 12:30:40;;;;;;;1.95;1.85;;;;;;;;;;5008491;28;20183;-48
2023/05/23 12:33:07;;;;;;;3.78;2.50;;;;;;;;;;5010757;28;20437;-51
2023/05/23 12:35:33;;;;;;;4.65;2.70;;;;;;;;;;5012301;28;20199;-46
2023/05/23 12:37:59;;;;;;;5.07;2.88;;;;;;;;;;5010263;28;20176;-46
2023/05/23 12:40:25;;;;;;;9.85;2.83;;;;;;;;;;5029661;28;20612;-46
2023/05/23 12:42:52;;;;;;;7.60;3.53;;;;;;;;;;5010636;28;20197;-46
2023/05/23 12:45:19;;;;;;;5.93;2.80;;;;;;;;;;5011256;28;20618;-46
2023/05/23 12:47:44;;;;;;;4.50;3.08;;;;;;;;;;5006483;28;20579;-46
2023/05/23 12:50:11;;;;;;;6.38;3.30;;;;;;;;;;5014408;28;20177;-46
2023/05/23 12:52:37;;;;;;;5.50;3.20;;;;;;;;;;5012221;28;20184;-46
2023/05/23 12:55:03;;;;;;;7.28;3.10;;;;;;;;;;5012259;28;20195;-46
2023/05/23 12:57:30;;;;;;;3.17;2.70;;;;;;;;;;5011656;28;20433;-46
2023/05/23 12:59:57;;;;;;;6.13;3.20;;;;;;;;;;5005104;28;20275;-46
2023/05/23 13:02:23;;;;;;;2.95;2.40;;;;;;;;;;5012823;28;20185;-46
2023/05/23 13:04:49;;;;;;;3.13;2.70;;;;;;;;;;5016752;28;20184;-46
2023/05/23 13:07:15;;;;;;;5.47;2.92;;;;;;;;;;5005821;28;20223;-46
2023/05/23 13:09:41;;;;;;;4.38;3.30;;;;;;;;;;5012899;28;20181;-46
2023/05/23 13:12:08;;;;;;;5.22;3.35;;;;;;;;;;5013943;28;20211;-46
2023/05/23 13:14:33;;;;;;;3.83;3.03;;;;;;;;;;5014384;28;20181;-46
2023/05/23 13:16:59;;;;;;;5.00;3.13;;;;;;;;;;5010139;28;20186;-46
2023/05/23 13:19:25;;;;;;;6.18;3.25;;;;;;;;;;5013520;28;20205;-46
2023/05/23 13:21:51;;;;;;;2.83;2.28;;;;;;;;;;5008307;28;20220;-46
2023/05/23 13:24:17;;;;;;;2.58;2.38;;;;;;;;;;5006087;28;20517;-46
2023/05/23 13:26:43;;;;;;;4.80;2.67;;;;;;;;;;5013671;28;20650;-46
2023/05/23 13:29:09;;;;;;;2.85;2.40;;;;;;;;;;5013503;28;20181;-46
2023/05/23 13:31:35;;;;;;;4.60;3.42;;;;;;;;;;5014556;28;20548;-46
2023/05/23 13:34:01;;;;;;;5.88;3.42;;;;;;;;;;5017844;28;20271;-46
2023/05/23 13:36:27;;;;;;;4.55;2.60;;;;;;;;;;5001540;28;20185;-46
2023/05/23 13:38:53;;;;;;;3.55;2.80;;;;;;;;;;5013913;28;20263;-46
2023/05/23 13:41:19;;;;;;;4.70;2.55;;;;;;;;;;5016671;28;20264;-46
2023/05/23 13:43:45;;;;;;;4.35;2.83;;;;;;;;;;5017890;28;20199;-46
2023/05/23 13:46:12;;;;;;;2.60;2.40;;;;;;;;;;5017133;28;20201;-46
2023/05/23 13:48:38;;;;;;;2.60;2.10;;;;;;;;;;5017319;28;20441;-46
2023/05/23 13:51:04;;;;;;;3.40;2.40;;;;;;;;;;5016775;28;20192;-46
2023/05/23 13:53:30;;;;;;;2.97;1.77;;;;;;;;;;5022873;28;20181;-46
2023/05/23 13:55:56;;;;;;;2.05;1.92;;;;;;;;;;5016463;28;20266;-46
2023/05/23 13:58:22;;;;;;;2.75;2.17;;;;;;;;;;5033058;28;20583;-46
2023/05/23 14:00:48;;;;;;;2.45;1.65;;;;;;;;;;5016714;28;20184;-46
2023/05/23 14:03:14;;;;;;;2.30;2.10;;;;;;;;;;5017205;28;20184;-46
2023/05/23 14:05:40;;;;;;;3.42;1.70;;;;;;;;;;5007384;28;20298;-46
2023/05/23 14:08:06;;;;;;;1.90;1.80;;;;;;;;;;5013826;28;20281;-46
2023/05/23 14:10:32;;;;;;;1.70;1.60;;;;;;;;;;5015324;28;20230;-46
2023/05/23 14:12:58;;;;;;;1.98;1.50;;;;;;;;;;5017024;28;20180;-46
2023/05/23 14:15:25;;;;;;;1.88;1.67;;;;;;;;;;5012768;28;20173;-46
2023/05/23 14:17:54;;;;;;;1.60;1.50;;;;;;;;;;5010847;28;20187;-46
2023/05/23 14:20:20;;;;;;;3.25;1.70;;;;;;;;;;5016124;28;20199;-46
2023/05/23 14:22:46;;;;;;;1.40;1.30;;;;;;;;;;5013130;28;20199;-46
2023/05/23 14:25:12;;;;;;;1.77;1.52;;;;;;;;;;5016386;28;20465;-46
2023/05/23 14:27:39;;;;;;;1.45;1.35;;;;;;;;;;5013155;28;20212;-46
2023/05/23 14:30:05;;;;;;;1.25;1.15;;;;;;;;;;5029265;28;20184;-45
2023/05/23 14:32:37;;;;;;;1.85;1.25;;;;;;;;;;5015230;28;20239;-46
2023/05/23 14:35:03;;;;;;;3.00;1.40;;;;;;;;;;5017075;28;20267;-46
2023/05/23 14:37:29;;;;;;;1.08;1.00;;;;;;;;;;5015213;28;20243;-46
2023/05/23 14:39:54;;;;;;;1.92;1.50;;;;;;;;;;5011526;28;20188;-46